Time;durP1;ratioP1;P1;durP2;ratioP2;P2;SDS_P1;SDS_P2;PMS_P1;PMS_P2;Temp;Humidity;BMP_temperature;BMP_pressure;BME280_temperature;BME280_humidity;BME280_pressure;Samples;Min_cycle;Max_cycle;Signal;HPM_P1;HPM_P2
2023/07/10 00:02:25;;;;;;;41.03;37.17;;;18.70;99.90;;;;;;6150648;23;20492;-77
2023/07/10 00:04:50;;;;;;;45.17;40.85;;;18.60;99.90;;;;;;6153128;23;20014;-76
2023/07/10 00:07:16;;;;;;;47.10;42.70;;;18.60;99.90;;;;;;6152730;23;20009;-76
2023/07/10 00:09:42;;;;;;;51.45;46.30;;;18.60;99.90;;;;;;6153010;23;20017;-76
2023/07/10 00:12:14;;;;;;;50.05;45.35;;;18.60;99.90;;;;;;6153390;23;20383;-76
2023/07/10 00:14:40;;;;;;;49.72;44.90;;;18.60;99.90;;;;;;6128656;23;20010;-77
2023/07/10 00:17:08;;;;;;;73.10;53.00;;;18.60;99.90;;;;;;6153161;23;20041;-76
2023/07/10 00:19:34;;;;;;;44.33;40.25;;;18.60;99.90;;;;;;6152163;23;20092;-76
2023/07/10 00:22:00;;;;;;;63.55;50.45;;;18.50;99.90;;;;;;6153043;23;20064;-76
2023/07/10 00:24:25;;;;;;;43.10;39.17;;;18.50;99.90;;;;;;6153070;23;20092;-76
2023/07/10 00:26:51;;;;;;;41.10;37.20;;;18.40;99.90;;;;;;6153138;23;20010;-77
2023/07/10 00:29:31;;;;;;;43.22;39.30;;;18.40;99.90;;;;;;6128934;23;20064;-76
2023/07/10 00:31:57;;;;;;;60.42;47.80;;;18.30;99.90;;;;;;6128848;23;20021;-77
2023/07/10 00:34:25;;;;;;;53.13;47.72;;;18.30;99.90;;;;;;6152580;23;20017;-77
2023/07/10 00:36:51;;;;;;;44.97;40.75;;;18.30;99.90;;;;;;6152419;23;20017;-77
2023/07/10 00:39:23;;;;;;;53.70;45.35;;;18.30;99.90;;;;;;6153304;23;20009;-77
2023/07/10 00:42:08;;;;;;;52.85;47.33;;;18.20;99.90;;;;;;6152766;23;20020;-76
2023/07/10 00:44:43;;;;;;;64.32;56.42;;;18.10;99.90;;;;;;6152757;23;20107;-76
2023/07/10 00:47:18;;;;;;;49.50;44.65;;;18.10;99.90;;;;;;6152928;23;20021;-76
2023/07/10 00:49:50;;;;;;;54.38;49.22;;;18.10;99.90;;;;;;6152029;23;20009;-76
2023/07/10 00:52:35;;;;;;;65.40;58.67;;;18.10;99.90;;;;;;6153195;23;20076;-76
2023/07/10 00:55:12;;;;;;;64.25;57.05;;;18.10;99.90;;;;;;6152918;23;20450;-76
2023/07/10 00:57:39;;;;;;;76.45;66.60;;;18.10;99.90;;;;;;6152968;23;20017;-76
2023/07/10 01:00:16;;;;;;;71.53;63.85;;;18.10;99.90;;;;;;6151608;23;20084;-76
2023/07/10 01:02:41;;;;;;;77.70;64.22;;;18.20;99.90;;;;;;6128452;23;20134;-76
2023/07/10 01:05:08;;;;;;;69.55;62.42;;;18.20;99.90;;;;;;6152602;23;20067;-76
2023/07/10 01:07:53;;;;;;;58.47;52.70;;;18.20;99.90;;;;;;6152584;23;20402;-77
2023/07/10 01:10:19;;;;;;;63.13;55.15;;;18.30;99.90;;;;;;6153015;23;20071;-76
2023/07/10 01:12:46;;;;;;;56.47;50.95;;;18.20;99.90;;;;;;6128003;23;20092;-76
2023/07/10 01:15:13;;;;;;;77.75;60.92;;;18.20;99.90;;;;;;6152663;23;20342;-76
2023/07/10 01:17:39;;;;;;;64.28;57.33;;;18.20;99.90;;;;;;6128097;23;20017;-76
2023/07/10 01:20:19;;;;;;;78.80;56.95;;;18.20;99.90;;;;;;6152316;23;20350;-76
2023/07/10 01:22:45;;;;;;;63.13;56.58;;;18.20;99.90;;;;;;6152834;23;20096;-76
2023/07/10 01:25:11;;;;;;;52.22;47.50;;;18.10;99.90;;;;;;6151736;23;20048;-77
2023/07/10 01:27:36;;;;;;;52.10;47.35;;;18.20;99.90;;;;;;6153024;23;20017;-76
2023/07/10 01:30:25;;;;;;;134.13;81.78;;;18.20;99.90;;;;;;6152458;23;20462;-76
2023/07/10 01:32:52;;;;;;;49.13;44.13;;;18.20;99.90;;;;;;6128307;23;20015;-76
2023/07/10 01:35:18;;;;;;;47.83;43.45;;;18.20;99.90;;;;;;6152385;23;20017;-76
2023/07/10 01:37:44;;;;;;;66.70;58.58;;;18.10;99.90;;;;;;6152080;23;20093;-76
2023/07/10 01:40:14;;;;;;;60.90;54.90;;;18.10;99.90;;;;;;6152023;23;20470;-76
2023/07/10 01:42:39;;;;;;;49.22;44.78;;;18.10;99.90;;;;;;6152208;23;20014;-75
2023/07/10 01:45:12;;;;;;;47.97;43.58;;;18.10;99.90;;;;;;6152370;23;20435;-76
2023/07/10 01:47:37;;;;;;;56.47;50.92;;;18.10;99.90;;;;;;6127914;23;20013;-76
2023/07/10 01:50:03;;;;;;;47.92;43.63;;;18.10;99.90;;;;;;6152148;23;20009;-76
2023/07/10 01:52:29;;;;;;;59.47;51.53;;;18.10;99.90;;;;;;6152554;23;20014;-76
2023/07/10 01:54:54;;;;;;;52.25;47.22;;;18.10;99.90;;;;;;6127072;23;20438;-76
2023/07/10 01:57:23;;;;;;;52.03;46.65;;;18.10;99.90;;;;;;6151345;23;20006;-76
2023/07/10 01:59:53;;;;;;;52.53;47.30;;;18.10;99.90;;;;;;6127310;23;20005;-76
2023/07/10 02:02:18;;;;;;;117.63;73.80;;;18.10;99.90;;;;;;6152536;23;20009;-76
2023/07/10 02:04:44;;;;;;;119.93;75.22;;;18.10;99.90;;;;;;6126995;23;20072;-75
2023/07/10 02:07:10;;;;;;;46.65;42.25;;;18.10;99.90;;;;;;6151686;23;20005;-76
2023/07/10 02:09:35;;;;;;;48.20;43.67;;;18.10;99.90;;;;;;6152269;23;20021;-77
2023/07/10 02:12:02;;;;;;;46.85;42.67;;;18.00;99.90;;;;;;6151878;23;20010;-76
2023/07/10 02:14:29;;;;;;;45.50;41.47;;;18.00;99.90;;;;;;6151913;23;20017;-76
2023/07/10 02:16:55;;;;;;;45.45;41.13;;;18.00;99.90;;;;;;6127535;23;20019;-77
2023/07/10 02:19:21;;;;;;;46.72;42.50;;;18.00;99.90;;;;;;6127119;23;20297;-76
2023/07/10 02:21:47;;;;;;;59.45;52.05;;;18.00;99.90;;;;;;6152381;23;20039;-76
2023/07/10 02:24:12;;;;;;;42.95;39.13;;;18.00;99.90;;;;;;6152054;23;20017;-76
2023/07/10 02:26:38;;;;;;;65.07;48.78;;;18.00;99.90;;;;;;6127653;23;20080;-77
2023/07/10 02:29:04;;;;;;;109.70;61.80;;;18.00;99.90;;;;;;6152034;23;20013;-77
2023/07/10 02:31:29;;;;;;;53.35;48.13;;;17.90;99.90;;;;;;6152233;23;20052;-76
2023/07/10 02:33:55;;;;;;;54.28;48.58;;;17.80;99.90;;;;;;6151313;23;20017;-76
2023/07/10 02:36:23;;;;;;;43.92;40.05;;;17.80;99.90;;;;;;6151310;23;20045;-75
2023/07/10 02:38:49;;;;;;;69.60;59.58;;;17.80;99.90;;;;;;6152066;23;20014;-76
2023/07/10 02:41:14;;;;;;;43.13;39.38;;;17.70;99.90;;;;;;6127724;23;20299;-76
2023/07/10 02:43:40;;;;;;;49.58;45.03;;;17.70;99.90;;;;;;6152390;23;20014;-76
2023/07/10 02:46:06;;;;;;;50.00;45.35;;;17.70;99.90;;;;;;6151197;23;20013;-75
2023/07/10 02:48:32;;;;;;;54.75;49.53;;;17.70;99.90;;;;;;6123917;23;20439;-76
2023/07/10 02:50:57;;;;;;;59.97;53.97;;;17.60;99.90;;;;;;6126406;23;20037;-76
2023/07/10 02:53:23;;;;;;;64.05;57.75;;;17.70;99.90;;;;;;6152303;23;20071;-77
2023/07/10 02:55:49;;;;;;;104.43;80.88;;;17.70;99.90;;;;;;6127677;23;20009;-77
2023/07/10 02:58:15;;;;;;;55.28;50.42;;;17.70;99.90;;;;;;6151427;23;20013;-76
2023/07/10 03:00:40;;;;;;;206.30;100.53;;;17.70;99.90;;;;;;6153795;23;20017;-76
2023/07/10 03:03:06;;;;;;;53.45;48.55;;;17.70;99.90;;;;;;6153281;23;20419;-76
2023/07/10 03:05:32;;;;;;;45.92;41.45;;;17.70;99.90;;;;;;6153975;23;20041;-76
2023/07/10 03:07:57;;;;;;;28.33;25.63;;;17.70;99.90;;;;;;6153072;23;20010;-75
2023/07/10 03:10:23;;;;;;;26.33;23.85;;;17.70;99.90;;;;;;6153926;23;20014;-75
2023/07/10 03:12:48;;;;;;;21.85;19.67;;;17.70;99.90;;;;;;6153673;23;20052;-76
2023/07/10 03:15:14;;;;;;;18.25;16.45;;;17.60;99.90;;;;;;6154154;23;20025;-76
2023/07/10 03:17:41;;;;;;;24.73;21.58;;;17.60;99.90;;;;;;6153251;23;20036;-76
2023/07/10 03:20:08;;;;;;;27.95;19.40;;;17.50;99.90;;;;;;6153502;23;20410;-76
2023/07/10 03:22:33;;;;;;;17.13;13.65;;;17.50;99.90;;;;;;6153972;23;20022;-76
2023/07/10 03:24:59;;;;;;;14.48;13.00;;;17.50;99.90;;;;;;6129105;23;20501;-76
2023/07/10 03:27:27;;;;;;;14.27;12.77;;;17.40;99.90;;;;;;6152523;23;20014;-76
2023/07/10 03:29:53;;;;;;;16.92;14.15;;;17.30;99.90;;;;;;6153560;23;20010;-76
2023/07/10 03:32:18;;;;;;;15.40;14.05;;;17.30;99.90;;;;;;6153874;23;20320;-76
2023/07/10 03:34:44;;;;;;;19.92;17.80;;;17.30;99.90;;;;;;6153785;23;20277;-76
2023/07/10 03:37:10;;;;;;;22.73;17.67;;;17.30;99.90;;;;;;6128114;23;20017;-76
2023/07/10 03:39:35;;;;;;;17.17;15.27;;;17.30;99.90;;;;;;6153106;23;20391;-76
2023/07/10 03:42:01;;;;;;;19.60;17.55;;;17.30;99.90;;;;;;6153677;23;20041;-76
2023/07/10 03:44:27;;;;;;;17.50;15.68;;;17.30;99.90;;;;;;6153548;23;20089;-76
2023/07/10 03:46:53;;;;;;;15.18;13.57;;;17.30;99.90;;;;;;6128520;23;20512;-76
2023/07/10 03:49:19;;;;;;;18.10;15.25;;;17.30;99.90;;;;;;6153451;23;20014;-76
2023/07/10 03:51:45;;;;;;;13.73;12.43;;;17.30;99.90;;;;;;6153132;23;20446;-76
2023/07/10 03:54:10;;;;;;;14.05;12.70;;;17.30;99.90;;;;;;6129206;23;20013;-76
2023/07/10 03:56:36;;;;;;;12.88;11.57;;;17.30;99.90;;;;;;6153162;23;20017;-75
2023/07/10 03:59:02;;;;;;;17.02;15.38;;;17.30;99.90;;;;;;6153641;23;20021;-76
2023/07/10 04:01:28;;;;;;;18.20;15.27;;;17.20;99.90;;;;;;6153425;23;20068;-76
2023/07/10 04:03:53;;;;;;;14.30;12.80;;;17.30;99.90;;;;;;6153178;23;20064;-76
2023/07/10 04:06:19;;;;;;;12.90;11.77;;;17.30;99.90;;;;;;6152789;23;20193;-76
2023/07/10 04:08:46;;;;;;;17.70;16.10;;;17.30;99.90;;;;;;6153264;23;20017;-76
2023/07/10 04:11:20;;;;;;;15.55;14.00;;;17.30;99.90;;;;;;6153971;23;20005;-76
2023/07/10 04:13:47;;;;;;;16.95;15.20;;;17.30;99.90;;;;;;6153593;23;20017;-76
2023/07/10 04:16:15;;;;;;;12.38;10.85;;;17.30;99.90;;;;;;6152783;23;20033;-76
2023/07/10 04:18:42;;;;;;;15.82;14.15;;;17.30;99.90;;;;;;6152916;23;20013;-76
2023/07/10 04:21:14;;;;;;;13.77;10.35;;;17.40;99.90;;;;;;6153476;23;20024;-76
2023/07/10 04:23:40;;;;;;;10.73;9.60;;;17.40;99.90;;;;;;6153626;23;20370;-76
2023/07/10 04:26:06;;;;;;;9.52;8.63;;;17.50;99.90;;;;;;6153274;23;20013;-76
2023/07/10 04:28:32;;;;;;;11.15;9.63;;;17.50;99.90;;;;;;6152520;23;20013;-76
2023/07/10 04:30:58;;;;;;;13.15;10.48;;;17.50;99.90;;;;;;6152976;23;20040;-76
2023/07/10 04:33:23;;;;;;;10.13;7.90;;;17.50;99.90;;;;;;6153334;23;20088;-76
2023/07/10 04:35:54;;;;;;;7.97;6.82;;;17.50;99.90;;;;;;6153165;23;20024;-76
2023/07/10 04:38:22;;;;;;;8.18;7.38;;;17.60;99.90;;;;;;6152302;23;20013;-76
2023/07/10 04:40:53;;;;;;;7.30;6.30;;;17.60;99.90;;;;;;6153120;23;20017;-76
2023/07/10 04:43:19;;;;;;;7.38;6.40;;;17.60;99.90;;;;;;6152778;23;20013;-76
2023/07/10 04:45:44;;;;;;;8.20;6.63;;;17.60;99.90;;;;;;6152649;23;20029;-75
2023/07/10 04:48:10;;;;;;;11.82;7.95;;;17.60;99.90;;;;;;6152574;23;20064;-76
2023/07/10 04:50:35;;;;;;;7.93;7.15;;;17.60;99.90;;;;;;6153263;23;20016;-76
2023/07/10 04:53:01;;;;;;;8.55;6.65;;;17.70;99.90;;;;;;6152722;23;20335;-76
2023/07/10 04:55:27;;;;;;;5.95;5.10;;;17.70;99.90;;;;;;6153234;23;20015;-76
2023/07/10 04:57:52;;;;;;;8.40;5.38;;;17.70;99.90;;;;;;6151209;23;20021;-76
2023/07/10 05:00:18;;;;;;;21.08;12.02;;;17.70;99.90;;;;;;6151498;23;20436;-76
2023/07/10 05:02:44;;;;;;;8.32;5.35;;;17.80;99.90;;;;;;6124526;23;20017;-76
2023/07/10 05:05:09;;;;;;;11.02;5.47;;;17.80;99.90;;;;;;6128471;23;20063;-76
2023/07/10 05:07:35;;;;;;;8.05;5.47;;;17.80;99.90;;;;;;6126907;23;20016;-76
2023/07/10 05:10:00;;;;;;;6.78;5.43;;;17.80;99.90;;;;;;6126651;23;20088;-76
2023/07/10 05:12:26;;;;;;;9.25;5.20;;;17.80;99.90;;;;;;6126737;23;20033;-75
2023/07/10 05:14:52;;;;;;;8.35;4.65;;;17.90;99.90;;;;;;6127084;23;20347;-76
2023/07/10 05:17:18;;;;;;;7.47;5.32;;;17.90;99.90;;;;;;6126722;23;20018;-76
2023/07/10 05:19:43;;;;;;;7.95;5.30;;;17.90;99.90;;;;;;6128124;23;20489;-76
2023/07/10 05:22:09;;;;;;;6.93;4.72;;;18.00;99.90;;;;;;6126722;23;20017;-76
2023/07/10 05:24:34;;;;;;;7.63;4.88;;;18.00;99.90;;;;;;6126988;23;20446;-77
2023/07/10 05:27:00;;;;;;;7.00;4.75;;;18.00;99.90;;;;;;6127895;23;20010;-75
2023/07/10 05:29:25;;;;;;;8.73;5.72;;;18.10;99.90;;;;;;6128231;23;20017;-75
2023/07/10 05:31:51;;;;;;;8.57;4.82;;;18.20;99.90;;;;;;6128138;23;20014;-75
2023/07/10 05:34:18;;;;;;;8.05;4.30;;;18.20;99.90;;;;;;6127166;23;20080;-75
2023/07/10 05:36:44;;;;;;;7.10;5.00;;;18.30;99.90;;;;;;6126338;23;20505;-75
2023/07/10 05:39:10;;;;;;;7.72;4.30;;;18.20;99.90;;;;;;6128201;23;20075;-75
2023/07/10 05:41:36;;;;;;;6.38;3.92;;;18.40;99.90;;;;;;6128128;23;20473;-75
2023/07/10 05:44:02;;;;;;;8.52;4.60;;;18.60;99.90;;;;;;6127974;23;20015;-75
2023/07/10 05:46:28;;;;;;;7.70;4.30;;;18.80;99.90;;;;;;6127897;23;20009;-75
2023/07/10 05:48:55;;;;;;;6.00;4.00;;;18.90;99.90;;;;;;6128166;23;20450;-75
2023/07/10 05:51:20;;;;;;;6.43;3.58;;;19.00;99.90;;;;;;6126164;23;20010;-75
2023/07/10 05:53:46;;;;;;;6.78;3.80;;;19.30;99.90;;;;;;6128095;23;20014;-75
2023/07/10 05:56:12;;;;;;;7.93;4.10;;;19.50;99.90;;;;;;6127743;23;20045;-75
2023/07/10 05:58:39;;;;;;;6.60;4.25;;;19.80;99.90;;;;;;6125885;23;20014;-75
2023/07/10 06:01:05;;;;;;;6.82;3.88;;;20.10;99.90;;;;;;6132379;23;20025;-76
2023/07/10 06:03:33;;;;;;;8.55;4.13;;;20.40;99.90;;;;;;6151489;23;20014;-75
2023/07/10 06:06:01;;;;;;;6.18;3.45;;;20.70;99.90;;;;;;6152193;23;20010;-75
2023/07/10 06:08:28;;;;;;;7.68;4.50;;;20.70;99.90;;;;;;6151641;23;20672;-77
2023/07/10 06:10:55;;;;;;;5.97;3.40;;;20.80;99.90;;;;;;6151678;23;20025;-77
2023/07/10 06:13:20;;;;;;;8.15;3.55;;;20.80;99.90;;;;;;6151110;23;20013;-77
2023/07/10 06:15:49;;;;;;;8.13;2.95;;;20.70;99.90;;;;;;6152784;23;20045;-77
2023/07/10 06:18:15;;;;;;;7.68;3.50;;;20.70;99.90;;;;;;6152487;23;20504;-76
2023/07/10 06:20:41;;;;;;;7.20;3.05;;;20.70;99.90;;;;;;6151891;23;20013;-76
2023/07/10 06:23:07;;;;;;;5.82;3.22;;;20.60;99.90;;;;;;6127692;23;20168;-77
2023/07/10 06:25:33;;;;;;;6.93;3.72;;;20.40;99.90;;;;;;6152547;23;20344;-77
2023/07/10 06:27:58;;;;;;;7.80;4.18;;;20.30;99.90;;;;;;6127720;23;20012;-77
2023/07/10 06:30:24;;;;;;;8.60;5.60;;;20.00;99.90;;;;;;6152344;23;20016;-77
2023/07/10 06:32:50;;;;;;;8.63;6.13;;;19.90;99.90;;;;;;6151826;23;20017;-76
2023/07/10 06:35:16;;;;;;;11.90;6.18;;;19.70;99.90;;;;;;6127687;23;20009;-77
2023/07/10 06:37:44;;;;;;;11.48;6.15;;;19.60;99.90;;;;;;6154973;23;20059;-77
2023/07/10 06:40:13;;;;;;;9.60;6.35;;;19.50;99.90;;;;;;6129829;23;20055;-76
2023/07/10 06:42:40;;;;;;;9.48;5.63;;;19.50;99.90;;;;;;6129253;23;20020;-76
2023/07/10 06:45:07;;;;;;;8.10;5.47;;;19.40;99.90;;;;;;6154355;23;20076;-77
2023/07/10 06:47:33;;;;;;;8.30;5.43;;;19.40;99.90;;;;;;6154254;23;20320;-77
2023/07/10 06:49:59;;;;;;;9.35;5.53;;;19.40;99.90;;;;;;6153904;23;20084;-77
2023/07/10 06:52:25;;;;;;;9.18;5.40;;;19.40;99.90;;;;;;6153277;23;20006;-77
2023/07/10 06:54:52;;;;;;;9.55;5.95;;;19.40;99.90;;;;;;6154179;23;20458;-76
2023/07/10 06:57:19;;;;;;;8.23;5.07;;;19.40;99.90;;;;;;6154101;23;20209;-76
2023/07/10 06:59:44;;;;;;;10.85;5.60;;;19.40;99.90;;;;;;6154378;23;20558;-77
2023/07/10 07:02:12;;;;;;;8.90;5.32;;;19.40;99.90;;;;;;6154465;23;20041;-77
2023/07/10 07:04:38;;;;;;;9.70;4.65;;;19.40;99.90;;;;;;6128858;23;20013;-77
2023/07/10 07:07:04;;;;;;;11.20;5.05;;;19.40;99.90;;;;;;6128923;23;20044;-77
2023/07/10 07:09:29;;;;;;;8.43;5.03;;;19.50;99.90;;;;;;6153628;23;20080;-76
2023/07/10 07:11:55;;;;;;;9.20;4.72;;;19.50;99.90;;;;;;6154151;23;20485;-76
2023/07/10 07:14:21;;;;;;;11.10;5.50;;;19.50;99.90;;;;;;6154151;23;20014;-76
2023/07/10 07:16:46;;;;;;;10.00;5.22;;;19.60;99.90;;;;;;6154032;23;20020;-77
2023/07/10 07:19:12;;;;;;;11.95;5.30;;;19.60;99.90;;;;;;6154200;23;20014;-77
2023/07/10 07:21:37;;;;;;;11.52;5.00;;;19.60;99.90;;;;;;6129258;23;20056;-77
2023/07/10 07:24:03;;;;;;;12.93;5.43;;;19.70;99.90;;;;;;6154071;23;20121;-76
2023/07/10 07:26:29;;;;;;;9.95;5.15;;;19.70;99.90;;;;;;6153852;23;20059;-77
2023/07/10 07:28:54;;;;;;;11.07;5.05;;;19.80;99.90;;;;;;6154082;23;20088;-77
2023/07/10 07:31:20;;;;;;;11.43;5.22;;;19.90;99.90;;;;;;6153852;23;20446;-77
2023/07/10 07:33:47;;;;;;;8.82;5.25;;;19.90;99.90;;;;;;6154042;23;20351;-77
2023/07/10 07:36:13;;;;;;;8.07;4.72;;;20.00;99.90;;;;;;6154125;23;20022;-77
2023/07/10 07:38:38;;;;;;;10.80;4.75;;;20.20;99.90;;;;;;6153935;23;20132;-77
2023/07/10 07:41:06;;;;;;;9.75;4.30;;;20.30;99.90;;;;;;6153923;23;20018;-77
2023/07/10 07:43:32;;;;;;;7.88;4.43;;;20.50;99.90;;;;;;6153297;23;20010;-77
2023/07/10 07:45:58;;;;;;;11.00;4.68;;;20.60;99.90;;;;;;6153261;23;20037;-77
2023/07/10 07:48:25;;;;;;;9.23;4.90;;;20.80;99.90;;;;;;6153958;23;20009;-76
2023/07/10 07:50:59;;;;;;;8.73;4.97;;;20.90;99.90;;;;;;6129314;23;20005;-77
2023/07/10 07:53:25;;;;;;;8.52;3.80;;;21.10;99.90;;;;;;6128262;23;20500;-77
2023/07/10 07:55:51;;;;;;;8.93;3.70;;;21.90;99.90;;;;;;6153652;23;20040;-77
2023/07/10 07:58:17;;;;;;;8.50;3.60;;;22.70;99.90;;;;;;6154294;23;20013;-78
2023/07/10 08:00:43;;;;;;;9.38;4.00;;;23.50;99.90;;;;;;6154115;23;20088;-78
2023/07/10 08:03:10;;;;;;;10.23;4.20;;;24.20;99.90;;;;;;6154449;23;20049;-78
2023/07/10 08:05:36;;;;;;;8.70;3.67;;;24.80;99.90;;;;;;6154125;23;20036;-78
2023/07/10 08:08:03;;;;;;;8.80;3.10;;;25.30;99.90;;;;;;6129137;23;20068;-78
2023/07/10 08:10:36;;;;;;;7.85;2.83;;;25.70;99.90;;;;;;6154094;23;20304;-78
2023/07/10 08:13:03;;;;;;;;;;;26.20;99.90;;;;;;6154612;23;20014;-78
2023/07/10 08:15:28;;;;;;;8.00;3.33;;;26.60;99.90;;;;;;6154232;23;19912;-77
2023/07/10 08:17:54;;;;;;;7.70;3.25;;;26.90;99.90;;;;;;6154068;23;20083;-78
2023/07/10 08:20:19;;;;;;;7.43;3.22;;;27.10;99.90;;;;;;6154208;23;20018;-77
2023/07/10 08:22:45;;;;;;;8.52;3.17;;;27.30;99.90;;;;;;6153227;23;20045;-77
2023/07/10 08:25:11;;;;;;;7.90;3.63;;;27.50;99.90;;;;;;6154040;23;20017;-78
2023/07/10 08:27:36;;;;;;;10.10;3.92;;;27.60;99.90;;;;;;6154285;23;20044;-78
2023/07/10 08:30:02;;;;;;;7.07;3.35;;;27.80;99.90;;;;;;6154724;23;20032;-78
2023/07/10 08:32:28;;;;;;;9.55;3.60;;;27.90;99.90;;;;;;6129206;23;20064;-78
2023/07/10 08:34:53;;;;;;;17.98;3.15;;;28.20;99.90;;;;;;6154395;23;20014;-78
2023/07/10 08:37:19;;;;;;;7.80;2.90;;;28.50;99.90;;;;;;6154179;23;20017;-78
2023/07/10 08:39:45;;;;;;;6.40;2.80;;;28.70;99.90;;;;;;6154430;23;20068;-78
2023/07/10 08:42:24;;;;;;;9.02;3.17;;;29.10;99.90;;;;;;6155183;23;20010;-79
2023/07/10 08:44:51;;;;;;;10.13;3.50;;;29.30;99.90;;;;;;6154737;23;20378;-78
2023/07/10 08:47:46;;;;;;;7.47;2.60;;;29.30;99.90;;;;;;6154123;23;20013;-79
2023/07/10 08:50:28;;;;;;;7.15;2.92;;;29.30;99.90;;;;;;6151509;23;20024;-78
2023/07/10 08:52:56;;;;;;;10.43;2.97;;;29.40;99.90;;;;;;6154387;23;20027;-78
2023/07/10 08:55:36;;;;;;;8.18;2.88;;;29.50;99.90;;;;;;6130084;23;20014;-78
2023/07/10 08:58:02;;;;;;;7.75;2.90;;;29.60;99.50;;;;;;6153323;23;20048;-78
2023/07/10 09:03:28;;;;;;;8.07;2.67;;;29.60;99.50;;;;;;6184485;23;20031;-81
2023/07/10 09:10:07;;;;;;;12.82;2.88;;;29.80;98.50;;;;;;6108651;23;20036;-81
2023/07/10 09:17:06;;;;;;;6.55;2.35;;;29.90;78.20;;;;;;6062356;23;20367;-81
2023/07/10 09:20:24;;;;;;;7.85;2.40;;;29.80;84.10;;;;;;5948871;23;20015;-80
2023/07/10 09:27:25;;;;;;;8.60;2.55;;;30.20;79.80;;;;;;5935632;23;20039;-81
2023/07/10 09:30:27;;;;;;;;;;;;;;;;;;;;;
2023/07/10 09:33:11;;;;;;;5.43;2.05;;;30.40;83.60;;;;;;6167611;23;20108;-81
2023/07/10 09:36:52;;;;;;;;;;;;;;;;;;;;;
2023/07/10 09:39:44;;;;;;;6.43;2.40;;;30.60;71.00;;;;;;6036092;23;20030;-81
2023/07/10 09:43:15;;;;;;;;;;;;;;;;;;;;;
2023/07/10 09:54:12;;;;;;;;;;;;;;;;;;;;;
2023/07/10 09:56:59;;;;;;;8.75;3.42;;;31.60;70.00;;;;;;6117926;23;20043;-77
2023/07/10 09:59:31;;;;;;;7.80;2.70;;;31.70;67.70;;;;;;6157594;23;20013;-76
2023/07/10 10:02:13;;;;;;;7.25;2.45;;;31.80;66.70;;;;;;6157013;23;20092;-76
2023/07/10 10:04:41;;;;;;;8.38;2.65;;;31.60;69.00;;;;;;6157607;23;20040;-76
2023/07/10 10:07:13;;;;;;;5.65;2.63;;;31.10;67.50;;;;;;6140025;23;20020;-76
2023/07/10 10:09:40;;;;;;;8.77;2.60;;;30.90;67.30;;;;;;6127750;23;20045;-77
2023/07/10 10:12:26;;;;;;;7.28;2.95;;;30.90;67.30;;;;;;6128000;23;20457;-77
2023/07/10 10:14:57;;;;;;;7.07;2.45;;;30.80;68.00;;;;;;6127937;23;20061;-77
2023/07/10 10:17:25;;;;;;;9.43;3.38;;;30.60;67.30;;;;;;6127743;23;20386;-76
2023/07/10 10:20:01;;;;;;;6.97;2.78;;;30.50;66.90;;;;;;6127775;23;20089;-76
2023/07/10 10:22:29;;;;;;;8.57;2.72;;;30.40;63.60;;;;;;6127791;23;20455;-77
2023/07/10 10:24:55;;;;;;;6.07;2.47;;;30.30;66.80;;;;;;6127720;23;20517;-77
2023/07/10 10:28:11;;;;;;;9.10;3.15;;;30.00;66.20;;;;;;6127664;23;20017;-77
2023/07/10 10:30:43;;;;;;;6.88;2.88;;;29.70;69.20;;;;;;6128035;23;20088;-78
2023/07/10 10:33:24;;;;;;;;;;;29.80;72.50;;;;;;6128356;23;20018;-77
2023/07/10 10:35:52;;;;;;;9.82;3.15;;;30.10;73.10;;;;;;6127084;23;19916;-76
2023/07/10 10:38:35;;;;;;;5.78;2.50;;;30.20;71.30;;;;;;6127703;23;20020;-78
2023/07/10 10:41:09;;;;;;;7.68;2.53;;;30.50;69.60;;;;;;6103351;23;20045;-77
2023/07/10 10:44:07;;;;;;;6.85;2.42;;;30.90;70.00;;;;;;6103277;23;20028;-77
2023/07/10 10:46:53;;;;;;;7.88;2.70;;;31.20;67.70;;;;;;6126665;23;20025;-76
2023/07/10 10:49:28;;;;;;;7.43;2.33;;;31.60;66.20;;;;;;6127858;23;20017;-77
2023/07/10 10:52:12;;;;;;;8.23;2.30;;;31.90;65.10;;;;;;6103425;23;20020;-76
2023/07/10 10:54:57;;;;;;;7.07;2.60;;;31.90;62.10;;;;;;6127736;23;20009;-77
2023/07/10 10:57:46;;;;;;;8.43;2.40;;;32.00;64.30;;;;;;6140239;23;20013;-76
2023/07/10 11:00:15;;;;;;;6.80;2.65;;;32.20;63.70;;;;;;6151879;23;20005;-77
2023/07/10 11:03:15;;;;;;;7.40;2.20;;;32.20;63.90;;;;;;6127823;23;20013;-77
2023/07/10 11:05:50;;;;;;;6.53;1.88;;;32.40;61.00;;;;;;6152362;23;20473;-77
2023/07/10 11:08:27;;;;;;;5.47;2.15;;;32.50;62.70;;;;;;6152737;23;20385;-77
2023/07/10 11:10:54;;;;;;;7.07;2.30;;;32.70;60.30;;;;;;6151937;23;20017;-76
2023/07/10 11:13:29;;;;;;;6.38;2.03;;;32.90;60.10;;;;;;6151819;23;20009;-77
2023/07/10 11:15:55;;;;;;;7.43;2.67;;;33.10;62.20;;;;;;6151938;23;20013;-76
2023/07/10 11:18:22;;;;;;;8.85;2.20;;;33.20;60.80;;;;;;6151878;23;20029;-76
2023/07/10 11:20:48;;;;;;;6.90;2.17;;;33.30;59.70;;;;;;6152649;23;20013;-78
2023/07/10 11:23:32;;;;;;;7.03;2.30;;;33.20;58.90;;;;;;6154091;23;20357;-78
2023/07/10 11:26:13;;;;;;;7.45;2.17;;;33.30;58.40;;;;;;6153316;23;20020;-77
2023/07/10 11:29:13;;;;;;;6.20;1.70;;;33.40;58.50;;;;;;6154130;23;20013;-76
2023/07/10 11:31:42;;;;;;;8.32;2.15;;;33.40;58.40;;;;;;6098018;23;20458;-76
2023/07/10 11:34:14;;;;;;;5.25;2.00;;;33.40;58.90;;;;;;6153855;23;20024;-77
2023/07/10 11:36:43;;;;;;;5.57;1.77;;;33.30;57.60;;;;;;6153768;23;20010;-77
2023/07/10 11:39:11;;;;;;;5.75;1.83;;;33.10;57.30;;;;;;6153961;23;20005;-77
2023/07/10 11:41:42;;;;;;;5.25;1.80;;;32.70;55.60;;;;;;6153618;23;20032;-76
2023/07/10 11:44:14;;;;;;;6.68;2.13;;;32.30;57.90;;;;;;6153852;23;20017;-76
2023/07/10 11:47:01;;;;;;;5.57;1.80;;;32.20;58.60;;;;;;6153656;23;20041;-77
2023/07/10 11:49:51;;;;;;;6.93;1.85;;;32.30;58.00;;;;;;6153897;23;20024;-77
2023/07/10 11:52:16;;;;;;;7.13;1.70;;;32.40;59.20;;;;;;6128644;23;20017;-78
2023/07/10 11:54:49;;;;;;;5.72;1.73;;;32.60;58.20;;;;;;6128587;23;20017;-77
2023/07/10 11:57:41;;;;;;;6.38;2.15;;;32.80;58.10;;;;;;6153363;23;20009;-77
2023/07/10 12:00:13;;;;;;;5.57;1.87;;;32.90;57.20;;;;;;6148362;23;20010;-77
2023/07/10 12:02:48;;;;;;;6.77;2.00;;;32.80;56.80;;;;;;6153817;23;20006;-77
2023/07/10 12:05:18;;;;;;;6.65;1.70;;;32.40;56.40;;;;;;6153419;23;20105;-76
2023/07/10 12:08:01;;;;;;;5.85;1.70;;;32.30;56.70;;;;;;6153185;23;20014;-77
2023/07/10 12:10:29;;;;;;;5.50;1.60;;;32.50;58.00;;;;;;6153801;23;20009;-77
2023/07/10 12:12:56;;;;;;;7.43;1.90;;;32.60;58.80;;;;;;6153498;23;20328;-77
2023/07/10 12:15:23;;;;;;;5.32;1.58;;;32.80;57.00;;;;;;6152735;23;20446;-76
2023/07/10 12:17:51;;;;;;;6.60;1.77;;;32.90;56.40;;;;;;6153238;23;20484;-76
2023/07/10 12:20:36;;;;;;;4.32;1.38;;;33.00;56.10;;;;;;6129025;23;20006;-77
2023/07/10 12:23:09;;;;;;;6.03;1.70;;;33.00;54.50;;;;;;6153529;23;20025;-78
2023/07/10 12:25:35;;;;;;;4.28;1.30;;;32.90;54.70;;;;;;6152902;23;20457;-77
2023/07/10 12:28:03;;;;;;;5.95;1.60;;;32.90;55.30;;;;;;6153186;23;20013;-77
2023/07/10 12:30:30;;;;;;;6.28;1.67;;;32.90;52.20;;;;;;6153186;23;20342;-77
2023/07/10 12:32:56;;;;;;;6.57;1.95;;;32.80;52.70;;;;;;6152717;23;20466;-77
2023/07/10 12:35:39;;;;;;;4.75;1.80;;;32.70;53.50;;;;;;6153534;23;20016;-76
2023/07/10 12:38:08;;;;;;;5.10;1.67;;;32.80;54.30;;;;;;6152156;23;20013;-77
2023/07/10 12:40:34;;;;;;;6.82;1.50;;;32.80;53.00;;;;;;6153002;23;20006;-77
2023/07/10 12:43:21;;;;;;;5.78;1.73;;;32.90;53.20;;;;;;6153404;23;20014;-77
2023/07/10 12:45:54;;;;;;;5.97;1.80;;;32.80;53.40;;;;;;6151971;23;20020;-77
2023/07/10 12:48:20;;;;;;;4.10;1.50;;;32.50;52.80;;;;;;6152928;23;20021;-76
2023/07/10 12:50:49;;;;;;;4.00;1.48;;;32.60;54.00;;;;;;6153326;23;20009;-77
2023/07/10 12:53:21;;;;;;;4.13;1.60;;;32.60;53.90;;;;;;6153228;23;20018;-76
2023/07/10 12:55:50;;;;;;;5.40;1.73;;;32.80;54.20;;;;;;6152564;23;20088;-76
2023/07/10 12:58:16;;;;;;;4.35;1.20;;;33.00;54.30;;;;;;6153483;23;20355;-76
2023/07/10 13:00:47;;;;;;;4.78;1.48;;;33.00;53.70;;;;;;6152550;23;20005;-76
2023/07/10 13:03:27;;;;;;;4.93;1.65;;;33.00;54.10;;;;;;6128075;23;20045;-77
2023/07/10 13:05:57;;;;;;;4.07;1.50;;;33.00;53.80;;;;;;6152857;23;20021;-76
2023/07/10 13:08:31;;;;;;;5.28;1.40;;;33.20;54.00;;;;;;6153172;23;20017;-76
2023/07/10 13:10:57;;;;;;;4.22;1.30;;;33.30;51.50;;;;;;6152977;23;20016;-77
2023/07/10 13:13:36;;;;;;;5.03;1.20;;;33.20;52.60;;;;;;6152911;23;20466;-76
2023/07/10 13:16:03;;;;;;;4.47;1.58;;;33.30;52.70;;;;;;6152727;23;20006;-76
2023/07/10 13:18:33;;;;;;;5.38;1.70;;;33.40;52.60;;;;;;6153031;23;20390;-77
2023/07/10 13:21:00;;;;;;;7.75;1.63;;;33.40;51.40;;;;;;6152329;23;20517;-77
2023/07/10 13:23:26;;;;;;;10.50;2.25;;;33.40;53.50;;;;;;6152491;23;20084;-77